sensor_id;sensor_type;location;lat;lon;timestamp;pressure;altitude;pressure_sealevel;temperature;humidity
6524;BME280;3295;38.928;-77.052;2023-03-03T00:00:00;100169.31;;;18.46;36.95
6524;BME280;3295;38.928;-77.052;2023-03-03T00:02:28;100171.91;;;18.44;40.75
6524;BME280;3295;38.928;-77.052;2023-03-03T00:04:57;100169.22;;;18.34;35.80
6524;BME280;3295;38.928;-77.052;2023-03-03T00:07:25;100172.72;;;18.39;36.41
6524;BME280;3295;38.928;-77.052;2023-03-03T00:09:53;100191.66;;;18.38;36.48
6524;BME280;3295;38.928;-77.052;2023-03-03T00:12:24;100180.44;;;18.37;36.21
6524;BME280;3295;38.928;-77.052;2023-03-03T00:14:53;100187.34;;;18.38;36.30
6524;BME280;3295;38.928;-77.052;2023-03-03T00:17:23;100189.91;;;18.35;37.49
6524;BME280;3295;38.928;-77.052;2023-03-03T00:19:51;100205.38;;;18.34;36.68
6524;BME280;3295;38.928;-77.052;2023-03-03T00:22:27;100213.88;;;18.21;37.11
6524;BME280;3295;38.928;-77.052;2023-03-03T00:24:59;100207.81;;;18.19;37.13
6524;BME280;3295;38.928;-77.052;2023-03-03T00:27:30;100217.31;;;18.17;37.48
6524;BME280;3295;38.928;-77.052;2023-03-03T00:29:59;100222.44;;;18.14;36.91
6524;BME280;3295;38.928;-77.052;2023-03-03T00:32:30;100231.06;;;18.16;37.04
6524;BME280;3295;38.928;-77.052;2023-03-03T00:35:07;100231.06;;;18.17;37.38
6524;BME280;3295;38.928;-77.052;2023-03-03T00:37:52;100225.91;;;18.19;37.27
6524;BME280;3295;38.928;-77.052;2023-03-03T00:40:22;100230.97;;;18.09;37.14
6524;BME280;3295;38.928;-77.052;2023-03-03T00:42:54;100226.69;;;18.10;37.06
6524;BME280;3295;38.928;-77.052;2023-03-03T00:45:27;100229.09;;;17.93;37.91
6524;BME280;3295;38.928;-77.052;2023-03-03T00:47:56;100243.72;;;17.90;37.34
6524;BME280;3295;38.928;-77.052;2023-03-03T00:50:30;100253.00;;;17.77;37.37
6524;BME280;3295;38.928;-77.052;2023-03-03T00:53:06;100253.81;;;17.71;35.99
6524;BME280;3295;38.928;-77.052;2023-03-03T00:55:37;100257.34;;;17.80;36.48
6524;BME280;3295;38.928;-77.052;2023-03-03T00:58:06;100258.16;;;17.74;36.26
6524;BME280;3295;38.928;-77.052;2023-03-03T01:00:34;100260.81;;;17.82;36.08
6524;BME280;3295;38.928;-77.052;2023-03-03T01:03:04;100262.56;;;17.84;36.18
6524;BME280;3295;38.928;-77.052;2023-03-03T01:05:32;100262.44;;;17.73;35.56
6524;BME280;3295;38.928;-77.052;2023-03-03T01:08:01;100269.34;;;17.77;36.22
6524;BME280;3295;38.928;-77.052;2023-03-03T01:10:32;100267.66;;;17.80;35.82
6524;BME280;3295;38.928;-77.052;2023-03-03T01:13:01;100271.09;;;17.79;35.82
6524;BME280;3295;38.928;-77.052;2023-03-03T01:15:29;100275.41;;;17.81;35.60
6524;BME280;3295;38.928;-77.052;2023-03-03T01:17:57;100290.06;;;17.84;36.82
6524;BME280;3295;38.928;-77.052;2023-03-03T01:20:25;100271.13;;;17.82;36.43
6524;BME280;3295;38.928;-77.052;2023-03-03T01:22:53;100265.91;;;17.75;36.05
6524;BME280;3295;38.928;-77.052;2023-03-03T01:25:21;100279.63;;;17.71;36.98
6524;BME280;3295;38.928;-77.052;2023-03-03T01:27:50;100293.25;;;17.63;36.31
6524;BME280;3295;38.928;-77.052;2023-03-03T01:30:18;100298.34;;;17.60;36.73
6524;BME280;3295;38.928;-77.052;2023-03-03T01:32:46;100309.50;;;17.59;36.09
6524;BME280;3295;38.928;-77.052;2023-03-03T01:35:14;100313.75;;;17.55;36.45
6524;BME280;3295;38.928;-77.052;2023-03-03T01:37:43;100318.88;;;17.52;36.35
6524;BME280;3295;38.928;-77.052;2023-03-03T01:40:14;100328.97;;;17.35;35.08
6524;BME280;3295;38.928;-77.052;2023-03-03T01:42:42;100337.59;;;17.39;36.45
6524;BME280;3295;38.928;-77.052;2023-03-03T01:45:23;100325.59;;;17.41;36.08
6524;BME280;3295;38.928;-77.052;2023-03-03T01:47:54;100328.97;;;17.34;35.74
6524;BME280;3295;38.928;-77.052;2023-03-03T01:50:39;100336.66;;;17.31;36.66
6524;BME280;3295;38.928;-77.052;2023-03-03T01:53:13;100340.91;;;17.29;36.27
6524;BME280;3295;38.928;-77.052;2023-03-03T01:55:42;100349.44;;;17.25;37.00
6524;BME280;3295;38.928;-77.052;2023-03-03T01:58:15;100348.63;;;17.27;36.54
6524;BME280;3295;38.928;-77.052;2023-03-03T02:00:47;100350.25;;;17.22;37.42
6524;BME280;3295;38.928;-77.052;2023-03-03T02:03:18;100345.13;;;17.25;35.71
6524;BME280;3295;38.928;-77.052;2023-03-03T02:05:48;100352.09;;;17.29;35.85
6524;BME280;3295;38.928;-77.052;2023-03-03T02:08:21;100359.78;;;17.28;37.15
6524;BME280;3295;38.928;-77.052;2023-03-03T02:10:50;100363.22;;;17.27;36.70
6524;BME280;3295;38.928;-77.052;2023-03-03T02:13:19;100375.19;;;17.25;37.68
6524;BME280;3295;38.928;-77.052;2023-03-03T02:15:48;100385.50;;;17.22;36.95
6524;BME280;3295;38.928;-77.052;2023-03-03T02:18:20;100381.97;;;17.17;36.85
6524;BME280;3295;38.928;-77.052;2023-03-03T02:20:54;100387.97;;;17.16;36.39
6524;BME280;3295;38.928;-77.052;2023-03-03T02:23:29;100383.66;;;17.15;36.05
6524;BME280;3295;38.928;-77.052;2023-03-03T02:26:12;100380.97;;;17.09;35.78
6524;BME280;3295;38.928;-77.052;2023-03-03T02:28:40;100370.63;;;17.05;35.62
6524;BME280;3295;38.928;-77.052;2023-03-03T02:31:10;100380.97;;;17.09;35.99
6524;BME280;3295;38.928;-77.052;2023-03-03T02:33:39;100379.94;;;16.97;35.71
6524;BME280;3295;38.928;-77.052;2023-03-03T02:36:11;100383.31;;;16.93;35.91
6524;BME280;3295;38.928;-77.052;2023-03-03T02:38:42;100391.13;;;16.99;37.08
6524;BME280;3295;38.928;-77.052;2023-03-03T02:41:15;100396.13;;;16.90;37.32
6524;BME280;3295;38.928;-77.052;2023-03-03T02:43:50;100408.22;;;16.96;37.10
6524;BME280;3295;38.928;-77.052;2023-03-03T02:46:21;100398.84;;;16.99;37.19
6524;BME280;3295;38.928;-77.052;2023-03-03T02:48:49;100401.22;;;16.87;37.35
6524;BME280;3295;38.928;-77.052;2023-03-03T02:51:17;100403.88;;;16.90;37.24
6524;BME280;3295;38.928;-77.052;2023-03-03T02:53:44;100411.41;;;16.81;36.23
6524;BME280;3295;38.928;-77.052;2023-03-03T02:56:14;100413.97;;;16.78;37.09
6524;BME280;3295;38.928;-77.052;2023-03-03T02:58:42;100429.50;;;16.84;37.60
6524;BME280;3295;38.928;-77.052;2023-03-03T03:01:10;100423.47;;;16.84;37.81
6524;BME280;3295;38.928;-77.052;2023-03-03T03:03:38;100419.16;;;16.81;37.50
6524;BME280;3295;38.928;-77.052;2023-03-03T03:06:06;100409.66;;;16.77;37.32
6524;BME280;3295;38.928;-77.052;2023-03-03T03:08:34;100417.16;;;16.65;37.57
6524;BME280;3295;38.928;-77.052;2023-03-03T03:11:03;100413.75;;;16.66;38.37
6524;BME280;3295;38.928;-77.052;2023-03-03T03:13:33;100418.94;;;16.69;38.63
6524;BME280;3295;38.928;-77.052;2023-03-03T03:16:01;100422.34;;;16.68;38.28
6524;BME280;3295;38.928;-77.052;2023-03-03T03:18:29;100430.06;;;16.68;38.68
6524;BME280;3295;38.928;-77.052;2023-03-03T03:21:03;100428.88;;;16.51;38.37
6524;BME280;3295;38.928;-77.052;2023-03-03T03:23:33;100434.03;;;16.51;39.91
6524;BME280;3295;38.928;-77.052;2023-03-03T03:26:02;100438.94;;;16.39;40.42
6524;BME280;3295;38.928;-77.052;2023-03-03T03:28:30;100443.81;;;16.26;40.51
6524;BME280;3295;38.928;-77.052;2023-03-03T03:31:00;100436.91;;;16.22;40.52
6524;BME280;3295;38.928;-77.052;2023-03-03T03:33:28;100445.31;;;16.15;40.80
6524;BME280;3295;38.928;-77.052;2023-03-03T03:35:56;100439.22;;;16.10;41.45
6524;BME280;3295;38.928;-77.052;2023-03-03T03:38:25;100440.69;;;15.99;42.46
6524;BME280;3295;38.928;-77.052;2023-03-03T03:40:54;100425.00;;;15.87;42.77
6524;BME280;3295;38.928;-77.052;2023-03-03T03:43:22;100427.38;;;15.78;43.38
6524;BME280;3295;38.928;-77.052;2023-03-03T03:45:50;100424.50;;;15.64;44.32
6524;BME280;3295;38.928;-77.052;2023-03-03T03:48:20;100432.09;;;15.59;44.85
6524;BME280;3295;38.928;-77.052;2023-03-03T03:50:48;100433.69;;;15.54;44.80
6524;BME280;3295;38.928;-77.052;2023-03-03T03:53:17;100435.34;;;15.52;44.51
6524;BME280;3295;38.928;-77.052;2023-03-03T03:55:45;100440.34;;;15.46;44.68
6524;BME280;3295;38.928;-77.052;2023-03-03T03:58:13;100438.59;;;15.45;45.86
6524;BME280;3295;38.928;-77.052;2023-03-03T04:00:42;100439.22;;;15.35;45.79
6524;BME280;3295;38.928;-77.052;2023-03-03T04:03:10;100445.94;;;15.28;45.98
6524;BME280;3295;38.928;-77.052;2023-03-03T04:05:41;100450.34;;;15.34;45.46
6524;BME280;3295;38.928;-77.052;2023-03-03T04:08:09;100448.66;;;15.36;44.45
6524;BME280;3295;38.928;-77.052;2023-03-03T04:10:40;100441.97;;;15.41;43.66
6524;BME280;3295;38.928;-77.052;2023-03-03T04:13:08;100431.59;;;15.38;42.35
6524;BME280;3295;38.928;-77.052;2023-03-03T04:15:36;100439.34;;;15.40;41.96
6524;BME280;3295;38.928;-77.052;2023-03-03T04:18:04;100453.81;;;15.36;41.54
6524;BME280;3295;38.928;-77.052;2023-03-03T04:20:31;100457.28;;;15.38;41.97
6524;BME280;3295;38.928;-77.052;2023-03-03T04:23:01;100476.19;;;15.40;42.56
6524;BME280;3295;38.928;-77.052;2023-03-03T04:25:29;100470.97;;;15.37;40.33
6524;BME280;3295;38.928;-77.052;2023-03-03T04:27:57;100465.91;;;15.40;40.50
6524;BME280;3295;38.928;-77.052;2023-03-03T04:30:24;100473.75;;;15.46;42.94
6524;BME280;3295;38.928;-77.052;2023-03-03T04:32:52;100474.53;;;15.42;44.76
6524;BME280;3295;38.928;-77.052;2023-03-03T04:35:20;100481.88;;;15.27;45.96
6524;BME280;3295;38.928;-77.052;2023-03-03T04:37:48;100492.59;;;15.11;47.29
6524;BME280;3295;38.928;-77.052;2023-03-03T04:40:18;100498.22;;;14.98;47.99
6524;BME280;3295;38.928;-77.052;2023-03-03T04:42:46;100509.97;;;14.88;48.08
6524;BME280;3295;38.928;-77.052;2023-03-03T04:45:14;100508.00;;;14.79;48.16
6524;BME280;3295;38.928;-77.052;2023-03-03T04:47:42;100500.22;;;14.76;48.23
6524;BME280;3295;38.928;-77.052;2023-03-03T04:50:11;100509.50;;;14.71;48.10
6524;BME280;3295;38.928;-77.052;2023-03-03T04:52:38;100523.81;;;14.63;48.54
6524;BME280;3295;38.928;-77.052;2023-03-03T04:55:07;100520.25;;;14.58;48.81
6524;BME280;3295;38.928;-77.052;2023-03-03T04:57:37;100518.44;;;14.54;48.75
6524;BME280;3295;38.928;-77.052;2023-03-03T05:00:06;100517.47;;;14.50;48.03
6524;BME280;3295;38.928;-77.052;2023-03-03T05:02:34;100518.44;;;14.54;48.56
6524;BME280;3295;38.928;-77.052;2023-03-03T05:05:02;100526.59;;;14.41;49.74
6524;BME280;3295;38.928;-77.052;2023-03-03T05:07:30;100537.22;;;14.24;50.62
6524;BME280;3295;38.928;-77.052;2023-03-03T05:09:58;100552.13;;;14.09;52.30
6524;BME280;3295;38.928;-77.052;2023-03-03T05:12:26;100559.44;;;13.97;52.68
6524;BME280;3295;38.928;-77.052;2023-03-03T05:14:56;100557.53;;;13.90;52.67
6524;BME280;3295;38.928;-77.052;2023-03-03T05:17:24;100560.72;;;13.83;52.06
6524;BME280;3295;38.928;-77.052;2023-03-03T05:19:52;100558.78;;;13.76;52.29
6524;BME280;3295;38.928;-77.052;2023-03-03T05:22:22;100551.00;;;13.73;52.87
6524;BME280;3295;38.928;-77.052;2023-03-03T05:24:50;100546.09;;;13.79;53.09
6524;BME280;3295;38.928;-77.052;2023-03-03T05:27:18;100543.59;;;13.82;52.20
6524;BME280;3295;38.928;-77.052;2023-03-03T05:29:46;100545.53;;;13.89;51.79
6524;BME280;3295;38.928;-77.052;2023-03-03T05:32:15;100549.94;;;13.93;52.87
6524;BME280;3295;38.928;-77.052;2023-03-03T05:34:43;100552.09;;;13.81;53.50
6524;BME280;3295;38.928;-77.052;2023-03-03T05:37:11;100556.78;;;13.67;54.75
6524;BME280;3295;38.928;-77.052;2023-03-03T05:39:40;100541.75;;;13.51;55.85
6524;BME280;3295;38.928;-77.052;2023-03-03T05:42:11;100546.56;;;13.42;56.29
6524;BME280;3295;38.928;-77.052;2023-03-03T05:44:39;100529.38;;;13.38;56.66
6524;BME280;3295;38.928;-77.052;2023-03-03T05:47:07;100526.53;;;13.30;57.79
6524;BME280;3295;38.928;-77.052;2023-03-03T05:49:37;100529.25;;;13.35;58.18
6524;BME280;3295;38.928;-77.052;2023-03-03T05:52:05;100529.50;;;13.42;58.91
6524;BME280;3295;38.928;-77.052;2023-03-03T05:54:34;100529.44;;;13.41;57.50
6524;BME280;3295;38.928;-77.052;2023-03-03T05:57:02;100536.25;;;13.15;56.61
6524;BME280;3295;38.928;-77.052;2023-03-03T05:59:29;100571.09;;;12.88;58.18
6524;BME280;3295;38.928;-77.052;2023-03-03T06:01:57;100567.91;;;12.69;62.03
6524;BME280;3295;38.928;-77.052;2023-03-03T06:04:25;100575.16;;;12.59;64.67
6524;BME280;3295;38.928;-77.052;2023-03-03T06:06:54;100571.53;;;12.52;64.08
6524;BME280;3295;38.928;-77.052;2023-03-03T06:09:22;100577.22;;;12.45;65.06
6524;BME280;3295;38.928;-77.052;2023-03-03T06:11:51;100571.53;;;12.52;64.99
6524;BME280;3295;38.928;-77.052;2023-03-03T06:14:19;100572.56;;;12.57;67.44
6524;BME280;3295;38.928;-77.052;2023-03-03T06:16:47;100571.09;;;12.64;66.96
6524;BME280;3295;38.928;-77.052;2023-03-03T06:19:15;100574.78;;;12.72;64.97
6524;BME280;3295;38.928;-77.052;2023-03-03T06:21:43;100581.91;;;12.79;61.71
6524;BME280;3295;38.928;-77.052;2023-03-03T06:24:13;100596.63;;;12.85;58.17
6524;BME280;3295;38.928;-77.052;2023-03-03T06:26:41;100612.19;;;12.91;57.98
6524;BME280;3295;38.928;-77.052;2023-03-03T06:29:09;100606.72;;;12.81;63.16
6524;BME280;3295;38.928;-77.052;2023-03-03T06:31:37;100616.16;;;12.60;66.56
6524;BME280;3295;38.928;-77.052;2023-03-03T06:34:04;100617.72;;;12.34;69.41
6524;BME280;3295;38.928;-77.052;2023-03-03T06:36:33;100628.38;;;11.81;80.73
6524;BME280;3295;38.928;-77.052;2023-03-03T06:39:00;100628.72;;;11.89;83.60
6524;BME280;3295;38.928;-77.052;2023-03-03T06:41:30;100627.00;;;11.89;75.55
6524;BME280;3295;38.928;-77.052;2023-03-03T06:43:58;100632.63;;;12.01;65.44
6524;BME280;3295;38.928;-77.052;2023-03-03T06:46:27;100639.38;;;12.22;62.01
6524;BME280;3295;38.928;-77.052;2023-03-03T06:48:55;100634.75;;;12.34;58.55
6524;BME280;3295;38.928;-77.052;2023-03-03T06:51:24;100637.69;;;12.43;59.26
6524;BME280;3295;38.928;-77.052;2023-03-03T06:53:55;100636.03;;;12.45;58.90
6524;BME280;3295;38.928;-77.052;2023-03-03T06:56:24;100630.28;;;12.51;53.68
6524;BME280;3295;38.928;-77.052;2023-03-03T06:58:55;100638.91;;;12.53;53.17
6524;BME280;3295;38.928;-77.052;2023-03-03T07:01:24;100641.22;;;12.69;54.13
6524;BME280;3295;38.928;-77.052;2023-03-03T07:03:54;100641.50;;;12.76;57.92
6524;BME280;3295;38.928;-77.052;2023-03-03T07:06:24;100657.34;;;12.66;55.95
6524;BME280;3295;38.928;-77.052;2023-03-03T07:08:54;100655.47;;;12.62;58.40
6524;BME280;3295;38.928;-77.052;2023-03-03T07:11:23;100648.00;;;12.46;64.53
6524;BME280;3295;38.928;-77.052;2023-03-03T07:13:52;100647.06;;;12.22;66.64
6524;BME280;3295;38.928;-77.052;2023-03-03T07:16:24;100644.59;;;12.02;57.25
6524;BME280;3295;38.928;-77.052;2023-03-03T07:18:54;100634.13;;;11.96;55.99
6524;BME280;3295;38.928;-77.052;2023-03-03T07:21:30;100628.63;;;12.08;53.99
6524;BME280;3295;38.928;-77.052;2023-03-03T07:23:58;100621.75;;;12.07;52.05
6524;BME280;3295;38.928;-77.052;2023-03-03T07:26:29;100617.19;;;12.21;51.21
6524;BME280;3295;38.928;-77.052;2023-03-03T07:29:00;100626.06;;;12.29;49.44
6524;BME280;3295;38.928;-77.052;2023-03-03T07:31:35;100624.00;;;12.20;53.17
6524;BME280;3295;38.928;-77.052;2023-03-03T07:34:15;100637.09;;;12.07;53.97
6524;BME280;3295;38.928;-77.052;2023-03-03T07:36:47;100630.50;;;11.91;53.31
6524;BME280;3295;38.928;-77.052;2023-03-03T07:39:29;100625.97;;;11.84;50.21
6524;BME280;3295;38.928;-77.052;2023-03-03T07:42:08;100617.31;;;12.01;49.13
6524;BME280;3295;38.928;-77.052;2023-03-03T07:44:41;100614.84;;;12.04;48.70
6524;BME280;3295;38.928;-77.052;2023-03-03T07:47:23;100626.25;;;12.13;48.78
6524;BME280;3295;38.928;-77.052;2023-03-03T07:49:53;100643.34;;;12.14;49.13
6524;BME280;3295;38.928;-77.052;2023-03-03T07:52:27;100646.31;;;12.03;48.75
6524;BME280;3295;38.928;-77.052;2023-03-03T07:54:58;100646.44;;;12.06;48.69
6524;BME280;3295;38.928;-77.052;2023-03-03T07:57:29;100641.72;;;12.16;48.74
6524;BME280;3295;38.928;-77.052;2023-03-03T08:02:56;100633.47;;;12.23;47.69
6524;BME280;3295;38.928;-77.052;2023-03-03T08:05:30;100635.47;;;12.30;47.55
6524;BME280;3295;38.928;-77.052;2023-03-03T08:08:26;100629.41;;;12.28;47.39
6524;BME280;3295;38.928;-77.052;2023-03-03T08:10:57;100633.22;;;12.17;47.55
6524;BME280;3295;38.928;-77.052;2023-03-03T08:13:28;100647.81;;;12.19;48.13
6524;BME280;3295;38.928;-77.052;2023-03-03T08:16:21;100650.56;;;12.24;47.81
6524;BME280;3295;38.928;-77.052;2023-03-03T08:18:53;100657.94;;;12.16;47.82
6524;BME280;3295;38.928;-77.052;2023-03-03T08:21:21;100672.63;;;12.22;47.27
6524;BME280;3295;38.928;-77.052;2023-03-03T08:23:50;100667.16;;;12.13;47.47
6524;BME280;3295;38.928;-77.052;2023-03-03T08:26:19;100674.97;;;12.16;47.88
6524;BME280;3295;38.928;-77.052;2023-03-03T08:28:47;100673.75;;;12.07;48.19
6524;BME280;3295;38.928;-77.052;2023-03-03T08:31:15;100673.88;;;12.10;48.11
6524;BME280;3295;38.928;-77.052;2023-03-03T08:33:43;100674.19;;;11.97;48.35
6524;BME280;3295;38.928;-77.052;2023-03-03T08:36:13;100672.50;;;11.77;48.61
6524;BME280;3295;38.928;-77.052;2023-03-03T08:38:41;100668.38;;;11.81;49.17
6524;BME280;3295;38.928;-77.052;2023-03-03T08:41:08;100667.78;;;11.86;49.32
6524;BME280;3295;38.928;-77.052;2023-03-03T08:43:36;100655.56;;;11.79;49.24
6524;BME280;3295;38.928;-77.052;2023-03-03T08:46:05;100653.13;;;11.82;49.24
6524;BME280;3295;38.928;-77.052;2023-03-03T08:48:35;100657.16;;;11.77;49.25
6524;BME280;3295;38.928;-77.052;2023-03-03T08:51:03;100667.53;;;11.61;49.21
6524;BME280;3295;38.928;-77.052;2023-03-03T08:53:33;100658.88;;;11.57;49.86
6524;BME280;3295;38.928;-77.052;2023-03-03T08:56:03;100674.06;;;11.54;50.22
6524;BME280;3295;38.928;-77.052;2023-03-03T08:58:31;100686.75;;;11.53;49.64
6524;BME280;3295;38.928;-77.052;2023-03-03T09:00:59;100702.88;;;11.52;49.95
6524;BME280;3295;38.928;-77.052;2023-03-03T09:03:27;100698.13;;;11.59;49.67
6524;BME280;3295;38.928;-77.052;2023-03-03T09:05:55;100682.16;;;11.65;48.87
6524;BME280;3295;38.928;-77.052;2023-03-03T09:08:23;100688.38;;;11.51;49.71
6524;BME280;3295;38.928;-77.052;2023-03-03T09:10:52;100683.25;;;11.51;49.86
6524;BME280;3295;38.928;-77.052;2023-03-03T09:13:20;100698.41;;;11.46;50.23
6524;BME280;3295;38.928;-77.052;2023-03-03T09:15:48;100710.16;;;11.43;50.07
6524;BME280;3295;38.928;-77.052;2023-03-03T09:18:18;100706.25;;;11.51;49.89
6524;BME280;3295;38.928;-77.052;2023-03-03T09:20:48;100722.66;;;11.56;49.52
6524;BME280;3295;38.928;-77.052;2023-03-03T09:23:34;100730.25;;;11.54;49.71
6524;BME280;3295;38.928;-77.052;2023-03-03T09:26:25;100734.22;;;11.48;49.88
6524;BME280;3295;38.928;-77.052;2023-03-03T09:28:56;100731.78;;;11.31;50.77
6524;BME280;3295;38.928;-77.052;2023-03-03T09:31:37;100738.16;;;11.22;50.42
6524;BME280;3295;38.928;-77.052;2023-03-03T09:34:17;100731.38;;;11.22;50.73
6524;BME280;3295;38.928;-77.052;2023-03-03T09:36:46;100743.63;;;11.29;51.50
6524;BME280;3295;38.928;-77.052;2023-03-03T09:39:17;100757.31;;;11.31;52.16
6524;BME280;3295;38.928;-77.052;2023-03-03T09:42:08;100737.16;;;11.37;51.37
6524;BME280;3295;38.928;-77.052;2023-03-03T09:45:08;100725.47;;;11.43;50.71
6524;BME280;3295;38.928;-77.052;2023-03-03T09:47:46;100735.56;;;11.39;50.69
6524;BME280;3295;38.928;-77.052;2023-03-03T09:50:28;100742.25;;;11.37;51.08
6524;BME280;3295;38.928;-77.052;2023-03-03T09:53:09;100746.81;;;11.25;51.29
6524;BME280;3295;38.928;-77.052;2023-03-03T09:55:45;100734.47;;;11.15;52.50
6524;BME280;3295;38.928;-77.052;2023-03-03T09:58:30;100724.19;;;11.14;51.50
6524;BME280;3295;38.928;-77.052;2023-03-03T10:01:11;100712.44;;;11.17;51.13
6524;BME280;3295;38.928;-77.052;2023-03-03T10:04:14;100729.22;;;11.12;52.57
6524;BME280;3295;38.928;-77.052;2023-03-03T10:06:50;100726.81;;;11.15;52.74
6524;BME280;3295;38.928;-77.052;2023-03-03T10:09:45;100707.28;;;10.98;52.46
6524;BME280;3295;38.928;-77.052;2023-03-03T10:12:21;100728.81;;;11.03;52.42
6524;BME280;3295;38.928;-77.052;2023-03-03T10:17:57;100747.63;;;10.69;54.27
6524;BME280;3295;38.928;-77.052;2023-03-03T10:20:43;100744.88;;;10.47;54.46
6524;BME280;3295;38.928;-77.052;2023-03-03T10:23:20;100762.41;;;10.41;55.61
6524;BME280;3295;38.928;-77.052;2023-03-03T10:25:56;100768.78;;;10.49;55.07
6524;BME280;3295;38.928;-77.052;2023-03-03T10:28:52;100770.38;;;10.47;54.86
6524;BME280;3295;38.928;-77.052;2023-03-03T10:31:37;100774.41;;;10.26;55.20
6524;BME280;3295;38.928;-77.052;2023-03-03T10:34:34;100778.41;;;10.05;55.73
6524;BME280;3295;38.928;-77.052;2023-03-03T10:37:08;100787.66;;;9.86;56.26
6524;BME280;3295;38.928;-77.052;2023-03-03T10:40:00;100779.88;;;9.67;56.56
6524;BME280;3295;38.928;-77.052;2023-03-03T10:45:44;100792.78;;;9.70;57.58
6524;BME280;3295;38.928;-77.052;2023-03-03T10:51:26;100777.34;;;9.51;59.22
6524;BME280;3295;38.928;-77.052;2023-03-03T10:54:11;100787.19;;;9.45;59.60
6524;BME280;3295;38.928;-77.052;2023-03-03T10:56:46;100793.72;;;9.40;61.27
6524;BME280;3295;38.928;-77.052;2023-03-03T10:59:36;100785.78;;;9.50;61.00
6524;BME280;3295;38.928;-77.052;2023-03-03T11:02:13;100773.28;;;9.38;62.36
6524;BME280;3295;38.928;-77.052;2023-03-03T11:04:59;100773.81;;;9.33;62.58
6524;BME280;3295;38.928;-77.052;2023-03-03T11:07:34;100766.56;;;9.24;64.08
6524;BME280;3295;38.928;-77.052;2023-03-03T11:10:20;100740.47;;;9.12;65.34
6524;BME280;3295;38.928;-77.052;2023-03-03T11:12:55;100713.59;;;9.17;66.94
6524;BME280;3295;38.928;-77.052;2023-03-03T11:15:47;100703.81;;;9.08;68.51
6524;BME280;3295;38.928;-77.052;2023-03-03T11:18:27;100732.41;;;9.04;68.16
6524;BME280;3295;38.928;-77.052;2023-03-03T11:21:09;100767.75;;;9.14;68.16
6524;BME280;3295;38.928;-77.052;2023-03-03T11:23:51;100814.97;;;9.09;70.25
6524;BME280;3295;38.928;-77.052;2023-03-03T11:26:32;100801.72;;;9.15;70.50
6524;BME280;3295;38.928;-77.052;2023-03-03T11:29:18;100809.78;;;9.08;72.00
6524;BME280;3295;38.928;-77.052;2023-03-03T11:31:54;100814.28;;;8.97;73.88
6524;BME280;3295;38.928;-77.052;2023-03-03T11:34:42;100825.47;;;8.84;75.58
6524;BME280;3295;38.928;-77.052;2023-03-03T11:37:18;100819.59;;;8.85;76.79
6524;BME280;3295;38.928;-77.052;2023-03-03T11:39:49;100796.00;;;8.88;76.14
6524;BME280;3295;38.928;-77.052;2023-03-03T11:42:24;100796.44;;;8.81;77.73
6524;BME280;3295;38.928;-77.052;2023-03-03T11:44:58;100804.44;;;8.72;77.42
6524;BME280;3295;38.928;-77.052;2023-03-03T11:47:31;100803.00;;;8.77;79.12
6524;BME280;3295;38.928;-77.052;2023-03-03T11:50:03;100807.06;;;8.59;79.63
6524;BME280;3295;38.928;-77.052;2023-03-03T11:52:40;100814.69;;;8.74;80.33
6524;BME280;3295;38.928;-77.052;2023-03-03T11:55:14;100810.31;;;8.57;80.14
6524;BME280;3295;38.928;-77.052;2023-03-03T11:57:47;100817.75;;;8.68;79.09
6524;BME280;3295;38.928;-77.052;2023-03-03T12:00:23;100821.06;;;8.82;77.88
6524;BME280;3295;38.928;-77.052;2023-03-03T12:03:24;100818.44;;;8.80;78.84
6524;BME280;3295;38.928;-77.052;2023-03-03T12:05:56;100820.38;;;8.70;79.15
6524;BME280;3295;38.928;-77.052;2023-03-03T12:08:41;100817.84;;;8.70;81.08
6524;BME280;3295;38.928;-77.052;2023-03-03T12:11:17;100822.13;;;8.85;81.88
6524;BME280;3295;38.928;-77.052;2023-03-03T12:13:53;100845.44;;;8.64;81.38
6524;BME280;3295;38.928;-77.052;2023-03-03T12:16:33;100850.72;;;8.67;81.09
6524;BME280;3295;38.928;-77.052;2023-03-03T12:19:24;100848.44;;;8.71;80.86
6524;BME280;3295;38.928;-77.052;2023-03-03T12:22:07;100858.25;;;8.80;81.13
6524;BME280;3295;38.928;-77.052;2023-03-03T12:27:46;100883.41;;;8.90;80.37
6524;BME280;3295;38.928;-77.052;2023-03-03T12:30:24;100899.03;;;8.96;80.25
6524;BME280;3295;38.928;-77.052;2023-03-03T12:33:06;100928.41;;;8.91;80.43
6524;BME280;3295;38.928;-77.052;2023-03-03T12:35:41;100943.66;;;9.06;79.04
6524;BME280;3295;38.928;-77.052;2023-03-03T12:38:14;100960.16;;;9.12;79.08
6524;BME280;3295;38.928;-77.052;2023-03-03T12:40:50;100976.91;;;9.23;77.95
6524;BME280;3295;38.928;-77.052;2023-03-03T12:43:35;100950.16;;;9.15;78.28
6524;BME280;3295;38.928;-77.052;2023-03-03T12:46:12;100952.25;;;9.08;80.23
6524;BME280;3295;38.928;-77.052;2023-03-03T12:48:45;100942.78;;;8.90;81.20
6524;BME280;3295;38.928;-77.052;2023-03-03T12:51:25;100935.31;;;8.79;82.80
6524;BME280;3295;38.928;-77.052;2023-03-03T12:54:23;100936.47;;;8.84;83.74
6524;BME280;3295;38.928;-77.052;2023-03-03T12:56:58;100935.06;;;8.89;83.95
6524;BME280;3295;38.928;-77.052;2023-03-03T12:59:41;100955.25;;;8.86;82.83
6524;BME280;3295;38.928;-77.052;2023-03-03T13:02:44;100976.97;;;8.81;85.60
6524;BME280;3295;38.928;-77.052;2023-03-03T13:05:20;101001.47;;;8.94;83.90
6524;BME280;3295;38.928;-77.052;2023-03-03T13:08:17;101014.09;;;8.92;82.66
6524;BME280;3295;38.928;-77.052;2023-03-03T13:10:53;101009.38;;;8.98;84.50
6524;BME280;3295;38.928;-77.052;2023-03-03T13:13:33;101008.41;;;8.96;82.71
6524;BME280;3295;38.928;-77.052;2023-03-03T13:16:09;101008.81;;;9.04;75.34
6524;BME280;3295;38.928;-77.052;2023-03-03T13:18:48;101017.72;;;9.10;71.79
6524;BME280;3295;38.928;-77.052;2023-03-03T13:21:22;101024.56;;;9.11;68.13
6524;BME280;3295;38.928;-77.052;2023-03-03T13:23:55;101029.56;;;8.67;66.38
6524;BME280;3295;38.928;-77.052;2023-03-03T13:26:28;101014.91;;;8.35;67.90
6524;BME280;3295;38.928;-77.052;2023-03-03T13:29:08;101000.03;;;8.41;68.14
6524;BME280;3295;38.928;-77.052;2023-03-03T13:31:46;100993.16;;;8.53;67.22
6524;BME280;3295;38.928;-77.052;2023-03-03T13:34:25;101005.66;;;8.50;66.41
6524;BME280;3295;38.928;-77.052;2023-03-03T13:37:02;100981.41;;;8.55;65.51